sensor_id;sensor_type;location;lat;lon;timestamp;temperature;humidity
64869;DHT22;51349;52.424;10.840;2023-05-07T00:04:32;9.20;99.90
64869;DHT22;51349;52.424;10.840;2023-05-07T00:09:37;9.20;99.90
64869;DHT22;51349;52.424;10.840;2023-05-07T00:14:37;9.20;99.90
64869;DHT22;51349;52.424;10.840;2023-05-07T00:19:38;9.20;99.90
64869;DHT22;51349;52.424;10.840;2023-05-07T00:24:39;9.20;99.90
64869;DHT22;51349;52.424;10.840;2023-05-07T00:29:39;9.10;99.90
64869;DHT22;51349;52.424;10.840;2023-05-07T00:34:40;9.10;99.90
64869;DHT22;51349;52.424;10.840;2023-05-07T00:39:41;9.20;99.90
64869;DHT22;51349;52.424;10.840;2023-05-07T00:44:41;9.20;99.90
64869;DHT22;51349;52.424;10.840;2023-05-07T00:49:43;9.10;99.90
64869;DHT22;51349;52.424;10.840;2023-05-07T00:54:44;9.10;99.90
64869;DHT22;51349;52.424;10.840;2023-05-07T00:59:45;9.10;99.90
64869;DHT22;51349;52.424;10.840;2023-05-07T01:04:46;9.10;99.90
64869;DHT22;51349;52.424;10.840;2023-05-07T01:09:46;9.00;99.90
64869;DHT22;51349;52.424;10.840;2023-05-07T01:14:47;9.00;99.90
64869;DHT22;51349;52.424;10.840;2023-05-07T01:19:50;9.00;99.90
64869;DHT22;51349;52.424;10.840;2023-05-07T01:24:51;8.90;99.90
64869;DHT22;51349;52.424;10.840;2023-05-07T01:29:51;8.90;99.90
64869;DHT22;51349;52.424;10.840;2023-05-07T01:34:53;8.90;99.90
64869;DHT22;51349;52.424;10.840;2023-05-07T01:39:54;8.90;99.90
64869;DHT22;51349;52.424;10.840;2023-05-07T01:44:56;8.90;99.90
64869;DHT22;51349;52.424;10.840;2023-05-07T01:49:57;8.90;99.90
64869;DHT22;51349;52.424;10.840;2023-05-07T01:54:58;8.90;99.90
64869;DHT22;51349;52.424;10.840;2023-05-07T01:59:59;8.80;99.90
64869;DHT22;51349;52.424;10.840;2023-05-07T02:04:59;8.80;99.90
64869;DHT22;51349;52.424;10.840;2023-05-07T02:10:01;8.80;99.90
64869;DHT22;51349;52.424;10.840;2023-05-07T02:15:03;8.80;99.90
64869;DHT22;51349;52.424;10.840;2023-05-07T02:20:04;8.80;99.90
64869;DHT22;51349;52.424;10.840;2023-05-07T02:25:05;8.80;99.90
64869;DHT22;51349;52.424;10.840;2023-05-07T02:30:06;8.80;99.90
64869;DHT22;51349;52.424;10.840;2023-05-07T02:35:07;8.70;99.90
64869;DHT22;51349;52.424;10.840;2023-05-07T02:40:08;8.70;99.90
64869;DHT22;51349;52.424;10.840;2023-05-07T02:45:10;8.70;99.90
64869;DHT22;51349;52.424;10.840;2023-05-07T02:50:10;8.70;99.90
64869;DHT22;51349;52.424;10.840;2023-05-07T02:55:11;8.70;99.90
64869;DHT22;51349;52.424;10.840;2023-05-07T03:00:16;8.70;99.90
64869;DHT22;51349;52.424;10.840;2023-05-07T03:05:18;8.70;99.90
64869;DHT22;51349;52.424;10.840;2023-05-07T03:10:18;8.70;99.90
64869;DHT22;51349;52.424;10.840;2023-05-07T03:15:19;8.60;99.90
64869;DHT22;51349;52.424;10.840;2023-05-07T03:20:20;8.60;99.90
64869;DHT22;51349;52.424;10.840;2023-05-07T03:25:20;8.60;99.90
64869;DHT22;51349;52.424;10.840;2023-05-07T03:30:21;8.60;99.90
64869;DHT22;51349;52.424;10.840;2023-05-07T03:35:22;8.60;99.90
64869;DHT22;51349;52.424;10.840;2023-05-07T03:40:22;8.60;99.90
64869;DHT22;51349;52.424;10.840;2023-05-07T03:45:23;8.70;99.90
64869;DHT22;51349;52.424;10.840;2023-05-07T03:50:24;8.60;99.90
64869;DHT22;51349;52.424;10.840;2023-05-07T03:55:24;8.70;99.90
64869;DHT22;51349;52.424;10.840;2023-05-07T04:00:25;8.70;99.90
64869;DHT22;51349;52.424;10.840;2023-05-07T04:05:26;8.70;99.90
64869;DHT22;51349;52.424;10.840;2023-05-07T04:10:27;8.70;99.90
64869;DHT22;51349;52.424;10.840;2023-05-07T04:15:30;8.70;99.90
64869;DHT22;51349;52.424;10.840;2023-05-07T04:20:34;8.70;99.90
64869;DHT22;51349;52.424;10.840;2023-05-07T04:25:36;8.70;99.90
64869;DHT22;51349;52.424;10.840;2023-05-07T04:30:37;8.70;99.90
64869;DHT22;51349;52.424;10.840;2023-05-07T04:35:38;8.70;99.90
64869;DHT22;51349;52.424;10.840;2023-05-07T04:40:38;8.70;99.90
64869;DHT22;51349;52.424;10.840;2023-05-07T04:45:39;8.70;99.90
64869;DHT22;51349;52.424;10.840;2023-05-07T04:50:41;8.70;99.90
64869;DHT22;51349;52.424;10.840;2023-05-07T04:55:42;8.70;99.90
64869;DHT22;51349;52.424;10.840;2023-05-07T05:00:43;8.70;99.90
64869;DHT22;51349;52.424;10.840;2023-05-07T05:05:44;8.70;99.90
64869;DHT22;51349;52.424;10.840;2023-05-07T05:10:44;8.80;99.90
64869;DHT22;51349;52.424;10.840;2023-05-07T05:15:45;8.80;99.90
64869;DHT22;51349;52.424;10.840;2023-05-07T05:20:46;8.80;99.90
64869;DHT22;51349;52.424;10.840;2023-05-07T05:25:46;8.80;99.90
64869;DHT22;51349;52.424;10.840;2023-05-07T05:30:47;8.90;99.90
64869;DHT22;51349;52.424;10.840;2023-05-07T05:35:49;8.90;99.90
64869;DHT22;51349;52.424;10.840;2023-05-07T05:40:49;8.90;99.90
64869;DHT22;51349;52.424;10.840;2023-05-07T05:45:50;8.90;99.90
64869;DHT22;51349;52.424;10.840;2023-05-07T05:50:51;8.90;99.90
64869;DHT22;51349;52.424;10.840;2023-05-07T05:55:51;9.00;99.90
64869;DHT22;51349;52.424;10.840;2023-05-07T06:00:52;9.10;99.90
64869;DHT22;51349;52.424;10.840;2023-05-07T06:05:53;9.10;99.90
64869;DHT22;51349;52.424;10.840;2023-05-07T06:10:54;9.10;99.90
64869;DHT22;51349;52.424;10.840;2023-05-07T06:15:55;9.00;99.90
64869;DHT22;51349;52.424;10.840;2023-05-07T06:20:55;9.00;99.90
64869;DHT22;51349;52.424;10.840;2023-05-07T06:25:56;9.00;99.90
64869;DHT22;51349;52.424;10.840;2023-05-07T06:31:16;9.00;99.90
64869;DHT22;51349;52.424;10.840;2023-05-07T06:36:17;9.00;99.90
64869;DHT22;51349;52.424;10.840;2023-05-07T06:41:18;9.10;99.90
64869;DHT22;51349;52.424;10.840;2023-05-07T06:46:18;9.20;99.90
64869;DHT22;51349;52.424;10.840;2023-05-07T06:51:19;9.20;99.90
64869;DHT22;51349;52.424;10.840;2023-05-07T06:56:20;9.20;99.90
64869;DHT22;51349;52.424;10.840;2023-05-07T07:01:21;9.30;99.90
64869;DHT22;51349;52.424;10.840;2023-05-07T07:06:22;9.30;99.90
64869;DHT22;51349;52.424;10.840;2023-05-07T07:11:22;9.50;99.90
64869;DHT22;51349;52.424;10.840;2023-05-07T07:16:23;9.50;99.90
64869;DHT22;51349;52.424;10.840;2023-05-07T07:21:23;9.60;99.90
64869;DHT22;51349;52.424;10.840;2023-05-07T07:26:24;9.60;99.90
64869;DHT22;51349;52.424;10.840;2023-05-07T07:31:25;9.70;99.90
64869;DHT22;51349;52.424;10.840;2023-05-07T07:36:25;9.90;99.90
64869;DHT22;51349;52.424;10.840;2023-05-07T07:41:26;10.10;99.90
64869;DHT22;51349;52.424;10.840;2023-05-07T07:46:27;10.20;99.90
64869;DHT22;51349;52.424;10.840;2023-05-07T07:51:28;10.20;99.90
64869;DHT22;51349;52.424;10.840;2023-05-07T07:56:28;10.20;99.90
64869;DHT22;51349;52.424;10.840;2023-05-07T08:01:30;10.20;99.90
64869;DHT22;51349;52.424;10.840;2023-05-07T08:06:30;10.30;99.90
64869;DHT22;51349;52.424;10.840;2023-05-07T08:11:31;10.30;99.90
64869;DHT22;51349;52.424;10.840;2023-05-07T08:16:32;10.40;99.90
64869;DHT22;51349;52.424;10.840;2023-05-07T08:21:32;10.30;99.90
64869;DHT22;51349;52.424;10.840;2023-05-07T08:26:33;10.40;99.90
64869;DHT22;51349;52.424;10.840;2023-05-07T08:31:34;10.40;99.90
64869;DHT22;51349;52.424;10.840;2023-05-07T08:36:34;10.50;99.90
64869;DHT22;51349;52.424;10.840;2023-05-07T08:41:35;10.80;99.90
64869;DHT22;51349;52.424;10.840;2023-05-07T08:46:36;10.90;99.90
64869;DHT22;51349;52.424;10.840;2023-05-07T08:51:37;11.00;99.90
64869;DHT22;51349;52.424;10.840;2023-05-07T08:56:37;11.10;99.90
64869;DHT22;51349;52.424;10.840;2023-05-07T09:01:40;11.10;99.90
64869;DHT22;51349;52.424;10.840;2023-05-07T09:06:40;11.20;99.90
64869;DHT22;51349;52.424;10.840;2023-05-07T09:11:42;11.40;99.90
64869;DHT22;51349;52.424;10.840;2023-05-07T09:16:43;11.40;99.90
64869;DHT22;51349;52.424;10.840;2023-05-07T09:21:44;11.30;99.90
64869;DHT22;51349;52.424;10.840;2023-05-07T09:26:44;11.30;99.90
64869;DHT22;51349;52.424;10.840;2023-05-07T09:31:45;11.50;99.90
64869;DHT22;51349;52.424;10.840;2023-05-07T09:36:46;11.40;99.90
64869;DHT22;51349;52.424;10.840;2023-05-07T09:41:47;11.20;99.90
64869;DHT22;51349;52.424;10.840;2023-05-07T09:46:54;11.30;99.90
64869;DHT22;51349;52.424;10.840;2023-05-07T09:51:56;11.40;99.90
64869;DHT22;51349;52.424;10.840;2023-05-07T09:57:01;11.50;99.90
64869;DHT22;51349;52.424;10.840;2023-05-07T10:02:03;11.60;99.90
64869;DHT22;51349;52.424;10.840;2023-05-07T10:07:05;11.60;99.90
64869;DHT22;51349;52.424;10.840;2023-05-07T10:12:06;11.60;99.90
64869;DHT22;51349;52.424;10.840;2023-05-07T10:17:07;11.80;99.90
64869;DHT22;51349;52.424;10.840;2023-05-07T10:22:08;11.90;99.90
64869;DHT22;51349;52.424;10.840;2023-05-07T10:27:11;12.00;99.90
64869;DHT22;51349;52.424;10.840;2023-05-07T10:37:41;11.90;99.90
64869;DHT22;51349;52.424;10.840;2023-05-07T10:42:59;11.80;99.90
64869;DHT22;51349;52.424;10.840;2023-05-07T10:48:08;12.00;99.90
64869;DHT22;51349;52.424;10.840;2023-05-07T11:03:22;12.40;99.90
64869;DHT22;51349;52.424;10.840;2023-05-07T11:08:23;12.70;99.90
64869;DHT22;51349;52.424;10.840;2023-05-07T11:18:49;12.70;99.90
64869;DHT22;51349;52.424;10.840;2023-05-07T11:28:51;12.90;99.90
64869;DHT22;51349;52.424;10.840;2023-05-07T11:33:54;13.00;99.90
64869;DHT22;51349;52.424;10.840;2023-05-07T11:38:55;13.20;99.90
64869;DHT22;51349;52.424;10.840;2023-05-07T11:43:58;13.60;99.90
64869;DHT22;51349;52.424;10.840;2023-05-07T11:49:00;13.90;99.90
64869;DHT22;51349;52.424;10.840;2023-05-07T11:54:06;14.00;99.90
64869;DHT22;51349;52.424;10.840;2023-05-07T11:59:09;14.00;99.90
64869;DHT22;51349;52.424;10.840;2023-05-07T12:04:09;14.00;99.90
64869;DHT22;51349;52.424;10.840;2023-05-07T12:09:10;14.20;99.90
64869;DHT22;51349;52.424;10.840;2023-05-07T12:14:12;13.90;99.90
64869;DHT22;51349;52.424;10.840;2023-05-07T12:19:13;14.40;99.90
64869;DHT22;51349;52.424;10.840;2023-05-07T12:24:17;14.10;99.90
64869;DHT22;51349;52.424;10.840;2023-05-07T12:29:21;14.00;99.90
64869;DHT22;51349;52.424;10.840;2023-05-07T12:34:23;14.40;99.90
64869;DHT22;51349;52.424;10.840;2023-05-07T12:39:23;14.30;99.90
64869;DHT22;51349;52.424;10.840;2023-05-07T12:44:26;14.60;99.90
64869;DHT22;51349;52.424;10.840;2023-05-07T12:49:29;15.40;99.90
64869;DHT22;51349;52.424;10.840;2023-05-07T12:54:34;14.90;99.90
64869;DHT22;51349;52.424;10.840;2023-05-07T12:59:37;15.80;99.90
64869;DHT22;51349;52.424;10.840;2023-05-07T13:04:38;15.80;99.90
64869;DHT22;51349;52.424;10.840;2023-05-07T13:09:38;15.70;99.90
64869;DHT22;51349;52.424;10.840;2023-05-07T13:14:39;15.30;99.90
64869;DHT22;51349;52.424;10.840;2023-05-07T13:19:40;15.00;99.90
64869;DHT22;51349;52.424;10.840;2023-05-07T13:24:40;14.90;99.90
64869;DHT22;51349;52.424;10.840;2023-05-07T13:29:43;15.00;99.90
64869;DHT22;51349;52.424;10.840;2023-05-07T13:34:43;15.70;99.90
64869;DHT22;51349;52.424;10.840;2023-05-07T13:39:44;15.50;99.90
64869;DHT22;51349;52.424;10.840;2023-05-07T13:44:46;14.70;99.90
64869;DHT22;51349;52.424;10.840;2023-05-07T13:49:46;15.00;99.90
64869;DHT22;51349;52.424;10.840;2023-05-07T13:54:49;15.40;99.90
64869;DHT22;51349;52.424;10.840;2023-05-07T13:59:52;15.60;99.90
64869;DHT22;51349;52.424;10.840;2023-05-07T14:04:53;15.20;99.90
64869;DHT22;51349;52.424;10.840;2023-05-07T14:09:54;15.60;99.90
64869;DHT22;51349;52.424;10.840;2023-05-07T14:14:55;15.80;99.90
64869;DHT22;51349;52.424;10.840;2023-05-07T14:19:57;15.90;99.90
64869;DHT22;51349;52.424;10.840;2023-05-07T14:24:58;15.80;99.90
64869;DHT22;51349;52.424;10.840;2023-05-07T14:29:58;15.90;99.90
64869;DHT22;51349;52.424;10.840;2023-05-07T14:34:59;16.10;99.90
64869;DHT22;51349;52.424;10.840;2023-05-07T14:40:00;16.00;99.90
64869;DHT22;51349;52.424;10.840;2023-05-07T14:45:01;15.80;99.90
64869;DHT22;51349;52.424;10.840;2023-05-07T14:50:01;15.80;99.90
64869;DHT22;51349;52.424;10.840;2023-05-07T14:55:03;16.70;99.90
64869;DHT22;51349;52.424;10.840;2023-05-07T15:00:04;17.00;99.90
64869;DHT22;51349;52.424;10.840;2023-05-07T15:05:05;17.40;99.90
64869;DHT22;51349;52.424;10.840;2023-05-07T15:10:06;17.40;99.90
64869;DHT22;51349;52.424;10.840;2023-05-07T15:15:08;17.20;99.90
64869;DHT22;51349;52.424;10.840;2023-05-07T15:20:09;17.20;99.90
64869;DHT22;51349;52.424;10.840;2023-05-07T15:25:10;16.80;99.90
64869;DHT22;51349;52.424;10.840;2023-05-07T15:30:12;16.70;99.90
64869;DHT22;51349;52.424;10.840;2023-05-07T15:35:14;16.70;99.90
64869;DHT22;51349;52.424;10.840;2023-05-07T15:40:15;16.80;99.90
64869;DHT22;51349;52.424;10.840;2023-05-07T15:45:15;17.30;99.90
64869;DHT22;51349;52.424;10.840;2023-05-07T15:50:16;17.70;99.90
64869;DHT22;51349;52.424;10.840;2023-05-07T15:55:17;18.40;99.90
64869;DHT22;51349;52.424;10.840;2023-05-07T16:00:18;17.90;98.90
64869;DHT22;51349;52.424;10.840;2023-05-07T16:05:18;17.50;99.90
64869;DHT22;51349;52.424;10.840;2023-05-07T16:10:19;17.20;98.50
64869;DHT22;51349;52.424;10.840;2023-05-07T16:15:20;17.40;98.80
64869;DHT22;51349;52.424;10.840;2023-05-07T16:20:21;17.40;99.60
64869;DHT22;51349;52.424;10.840;2023-05-07T16:25:22;17.30;99.30
64869;DHT22;51349;52.424;10.840;2023-05-07T16:30:23;18.20;99.50
64869;DHT22;51349;52.424;10.840;2023-05-07T16:35:24;18.60;96.60
64869;DHT22;51349;52.424;10.840;2023-05-07T16:40:24;18.30;98.60
64869;DHT22;51349;52.424;10.840;2023-05-07T16:45:25;17.50;98.10
64869;DHT22;51349;52.424;10.840;2023-05-07T16:50:26;16.50;98.80
64869;DHT22;51349;52.424;10.840;2023-05-07T16:55:26;16.60;98.30
64869;DHT22;51349;52.424;10.840;2023-05-07T17:00:27;16.50;98.30
64869;DHT22;51349;52.424;10.840;2023-05-07T17:05:28;16.30;98.60
64869;DHT22;51349;52.424;10.840;2023-05-07T17:10:28;16.50;99.10
64869;DHT22;51349;52.424;10.840;2023-05-07T17:15:29;16.10;99.50
64869;DHT22;51349;52.424;10.840;2023-05-07T17:20:30;15.50;99.90
64869;DHT22;51349;52.424;10.840;2023-05-07T17:25:33;15.40;99.90
64869;DHT22;51349;52.424;10.840;2023-05-07T17:30:34;15.10;99.90
64869;DHT22;51349;52.424;10.840;2023-05-07T17:35:35;14.90;99.90
64869;DHT22;51349;52.424;10.840;2023-05-07T17:40:35;14.50;99.90
64869;DHT22;51349;52.424;10.840;2023-05-07T17:45:36;14.30;99.90
64869;DHT22;51349;52.424;10.840;2023-05-07T17:50:36;14.20;99.90
64869;DHT22;51349;52.424;10.840;2023-05-07T17:55:46;14.10;99.90
64869;DHT22;51349;52.424;10.840;2023-05-07T18:00:48;14.00;99.90
64869;DHT22;51349;52.424;10.840;2023-05-07T18:05:49;13.80;99.90
64869;DHT22;51349;52.424;10.840;2023-05-07T18:10:50;13.70;99.90
64869;DHT22;51349;52.424;10.840;2023-05-07T18:15:51;13.60;99.90
64869;DHT22;51349;52.424;10.840;2023-05-07T18:20:57;13.30;99.90
64869;DHT22;51349;52.424;10.840;2023-05-07T18:25:58;13.10;99.90
64869;DHT22;51349;52.424;10.840;2023-05-07T18:30:59;12.90;99.90
64869;DHT22;51349;52.424;10.840;2023-05-07T18:35:59;12.80;99.90
64869;DHT22;51349;52.424;10.840;2023-05-07T18:41:02;12.70;99.90
64869;DHT22;51349;52.424;10.840;2023-05-07T18:46:03;12.40;99.90
64869;DHT22;51349;52.424;10.840;2023-05-07T18:51:04;12.30;99.90
64869;DHT22;51349;52.424;10.840;2023-05-07T18:56:05;12.20;99.90
64869;DHT22;51349;52.424;10.840;2023-05-07T19:01:06;12.10;99.90
64869;DHT22;51349;52.424;10.840;2023-05-07T19:06:07;12.00;99.90
64869;DHT22;51349;52.424;10.840;2023-05-07T19:11:08;11.90;99.90
64869;DHT22;51349;52.424;10.840;2023-05-07T19:16:08;11.70;99.90
64869;DHT22;51349;52.424;10.840;2023-05-07T19:21:11;11.70;99.90
64869;DHT22;51349;52.424;10.840;2023-05-07T19:26:12;11.50;99.90
64869;DHT22;51349;52.424;10.840;2023-05-07T19:31:20;11.30;99.90
64869;DHT22;51349;52.424;10.840;2023-05-07T19:36:21;11.30;99.90
64869;DHT22;51349;52.424;10.840;2023-05-07T19:41:22;11.10;99.90
64869;DHT22;51349;52.424;10.840;2023-05-07T19:46:23;11.00;99.90
64869;DHT22;51349;52.424;10.840;2023-05-07T19:51:26;10.90;99.90
64869;DHT22;51349;52.424;10.840;2023-05-07T19:56:31;10.80;99.90
64869;DHT22;51349;52.424;10.840;2023-05-07T20:01:32;10.70;99.90
64869;DHT22;51349;52.424;10.840;2023-05-07T20:06:33;10.60;99.90
64869;DHT22;51349;52.424;10.840;2023-05-07T20:11:35;10.50;99.90
64869;DHT22;51349;52.424;10.840;2023-05-07T20:16:35;10.40;99.90
64869;DHT22;51349;52.424;10.840;2023-05-07T20:21:36;10.30;99.90
64869;DHT22;51349;52.424;10.840;2023-05-07T20:26:36;10.20;99.90
64869;DHT22;51349;52.424;10.840;2023-05-07T20:31:38;10.10;99.90
64869;DHT22;51349;52.424;10.840;2023-05-07T20:36:40;10.00;99.90
64869;DHT22;51349;52.424;10.840;2023-05-07T20:41:41;9.90;99.90
64869;DHT22;51349;52.424;10.840;2023-05-07T20:46:44;9.90;99.90
64869;DHT22;51349;52.424;10.840;2023-05-07T20:51:44;9.80;99.90
64869;DHT22;51349;52.424;10.840;2023-05-07T20:56:45;9.70;99.90
64869;DHT22;51349;52.424;10.840;2023-05-07T21:01:46;9.60;99.90
64869;DHT22;51349;52.424;10.840;2023-05-07T21:06:46;9.60;99.90
64869;DHT22;51349;52.424;10.840;2023-05-07T21:11:47;9.50;99.90
64869;DHT22;51349;52.424;10.840;2023-05-07T21:16:47;9.50;99.90
64869;DHT22;51349;52.424;10.840;2023-05-07T21:21:48;9.40;99.90
64869;DHT22;51349;52.424;10.840;2023-05-07T21:26:49;9.30;99.90
64869;DHT22;51349;52.424;10.840;2023-05-07T21:31:50;9.30;99.90
64869;DHT22;51349;52.424;10.840;2023-05-07T21:36:51;9.20;99.90
64869;DHT22;51349;52.424;10.840;2023-05-07T21:41:51;9.10;99.90
64869;DHT22;51349;52.424;10.840;2023-05-07T21:46:52;9.10;99.90
64869;DHT22;51349;52.424;10.840;2023-05-07T21:51:53;9.00;99.90
64869;DHT22;51349;52.424;10.840;2023-05-07T21:56:53;8.90;99.90
64869;DHT22;51349;52.424;10.840;2023-05-07T22:01:54;8.90;99.90
64869;DHT22;51349;52.424;10.840;2023-05-07T22:06:55;8.80;99.90
64869;DHT22;51349;52.424;10.840;2023-05-07T22:11:55;8.80;99.90
64869;DHT22;51349;52.424;10.840;2023-05-07T22:16:56;8.70;99.90
64869;DHT22;51349;52.424;10.840;2023-05-07T22:21:56;8.60;99.90
64869;DHT22;51349;52.424;10.840;2023-05-07T22:26:57;8.50;99.90
64869;DHT22;51349;52.424;10.840;2023-05-07T22:31:58;8.40;99.90
64869;DHT22;51349;52.424;10.840;2023-05-07T22:36:58;8.40;99.90
64869;DHT22;51349;52.424;10.840;2023-05-07T22:41:59;8.30;99.90
64869;DHT22;51349;52.424;10.840;2023-05-07T22:47:01;8.20;99.90
64869;DHT22;51349;52.424;10.840;2023-05-07T22:52:02;8.10;99.90
64869;DHT22;51349;52.424;10.840;2023-05-07T22:57:03;8.00;99.90
64869;DHT22;51349;52.424;10.840;2023-05-07T23:02:03;7.90;99.90
64869;DHT22;51349;52.424;10.840;2023-05-07T23:07:04;7.80;99.90
64869;DHT22;51349;52.424;10.840;2023-05-07T23:12:06;7.80;99.90
64869;DHT22;51349;52.424;10.840;2023-05-07T23:17:06;7.60;99.90
64869;DHT22;51349;52.424;10.840;2023-05-07T23:22:07;7.50;99.90
64869;DHT22;51349;52.424;10.840;2023-05-07T23:27:09;7.40;99.90
64869;DHT22;51349;52.424;10.840;2023-05-07T23:32:10;7.30;99.90
64869;DHT22;51349;52.424;10.840;2023-05-07T23:37:11;7.20;99.90
64869;DHT22;51349;52.424;10.840;2023-05-07T23:42:11;7.20;99.90
64869;DHT22;51349;52.424;10.840;2023-05-07T23:47:13;7.10;99.90
64869;DHT22;51349;52.424;10.840;2023-05-07T23:52:13;7.00;99.90
64869;DHT22;51349;52.424;10.840;2023-05-07T23:57:14;7.00;99.90
